Rome, OR

1:31 AM MST on February 23, 2018 (GMT -0700)
Rome State | | Change Station

Elev 4052 ft 42.58 °N, 117.89 °W | Updated 39 minutes ago

Overcast
Overcast
16 °F
Feels Like 6 °F
N
7
Wind Variable Wind from NE

Today
High -- | Low -- °F
--% Chance of Precip.
Yesterday
High -- | Low -- °F
Precip. -- in
Pressure 30.19 in
Visibility -9999.0 miles
Clouds
Windchill 6 °F
Dew Point 12 °F
Humidity 84%
Rainfall 0.10 in
Snow Depth Not available.
7:36 AM 6:33 PM
Waxing Crescent, 50% visible
METAR KREO 230752Z AUTO 05006KT M09/M11 A3007 RMK AO1 SLP222 T10891111
Pressure 30.19 in
Visibility -9999.0 miles
Clouds
Windchill 6 °F
Dew Point 12 °F
Humidity 84%
Rainfall 0.10 in
Snow Depth Not available.
7:36 AM 6:33 PM
Waxing Crescent, 50% visible
METAR KREO 230752Z AUTO 05006KT M09/M11 A3007 RMK AO1 SLP222 T10891111

Get Severe Weather Alerts

Thanks for signing up!

Be on the lookout for a verification email in your inbox.

You'll start receiving the daily forecast at 6 AM.

×

10-Day Weather Forecast

Almanac

Astronomy

Feb. 23, 2018 Rise Set
Actual Time
Civil Twilight
Nautical Twilight
Astronomical Twilight
Moon
Length of Visible Light
Length of Day
Tomorrow will be .
, % of the Moon is Illuminated

Today's Extremes

State Highs State Lows

Community

WunderPhotos

Category 6

Welcome to Category 6. This is the collective home for Weather Underground's featured writeups by Dr. Jeff Masters (right), Bob Henson (left), Chris Burt, and other regular contributors.

Nearby

Air Quality

  Air Quality AQ Index Pollutant
Not available.

Snow Depth

Station Depth Elevation

Earthquake Activity

City Distance Mag. Time & Date
Minimum magnitude displayed is 2.5.

Coastal Water Temperatures

Place Temperature

Stations

Nearby Weather Stations

Station Location Temp. Windchill Dew Point Humidity Wind Precip. Elev Updated Type
                   

Watches & Warnings

There are currently no watches in effect.